sensor_id;sensor_type;location;lat;lon;timestamp;pressure;altitude;pressure_sealevel;temperature;humidity
31088;BME280;17745;55.914;37.554;2022-08-25T00:30:34;100249.06;;;24.11;37.05
31088;BME280;17745;55.914;37.554;2022-08-25T00:33:26;100244.78;;;24.10;37.03
31088;BME280;17745;55.914;37.554;2022-08-25T00:41:06;100248.28;;;24.10;37.18
31088;BME280;17745;55.914;37.554;2022-08-25T00:44:18;100241.13;;;24.06;37.19
31088;BME280;17745;55.914;37.554;2022-08-25T00:51:14;100251.59;;;23.98;37.43
31088;BME280;17745;55.914;37.554;2022-08-25T01:01:43;100245.72;;;23.88;37.52
31088;BME280;17745;55.914;37.554;2022-08-25T01:05:14;100246.03;;;23.86;37.57
31088;BME280;17745;55.914;37.554;2022-08-25T01:32:40;100236.00;;;23.95;37.93
31088;BME280;17745;55.914;37.554;2022-08-25T01:35:09;100240.94;;;23.93;38.00
31088;BME280;17745;55.914;37.554;2022-08-25T01:37:40;100238.38;;;23.88;38.04
31088;BME280;17745;55.914;37.554;2022-08-25T01:40:10;100237.91;;;23.86;38.13
31088;BME280;17745;55.914;37.554;2022-08-25T01:42:46;100231.69;;;23.85;38.23
31088;BME280;17745;55.914;37.554;2022-08-25T01:45:21;100228.69;;;23.87;38.41
31088;BME280;17745;55.914;37.554;2022-08-25T01:59:51;100240.59;;;23.68;38.60
31088;BME280;17745;55.914;37.554;2022-08-25T02:02:25;100247.09;;;23.59;38.61
31088;BME280;17745;55.914;37.554;2022-08-25T02:05:25;100240.41;;;23.56;38.66
31088;BME280;17745;55.914;37.554;2022-08-25T02:08:02;100239.12;;;23.53;38.71
31088;BME280;17745;55.914;37.554;2022-08-25T02:10:51;100235.94;;;23.51;38.78
31088;BME280;17745;55.914;37.554;2022-08-25T02:13:52;100237.84;;;23.51;38.83
31088;BME280;17745;55.914;37.554;2022-08-25T02:19:47;100245.72;;;23.88;38.48
31088;BME280;17745;55.914;37.554;2022-08-25T02:22:48;100245.72;;;23.88;38.48
31088;BME280;17745;55.914;37.554;2022-08-25T02:25:47;100248.16;;;23.40;38.89
31088;BME280;17745;55.914;37.554;2022-08-25T02:28:51;100250.66;;;23.36;39.12
31088;BME280;17745;55.914;37.554;2022-08-25T02:31:53;100244.19;;;23.37;39.26
31088;BME280;17745;55.914;37.554;2022-08-25T02:35:12;100249.59;;;23.37;39.24
31088;BME280;17745;55.914;37.554;2022-08-25T02:38:15;100238.16;;;23.40;39.42
31088;BME280;17745;55.914;37.554;2022-08-25T02:41:10;100244.03;;;23.42;39.34
31088;BME280;17745;55.914;37.554;2022-08-25T02:44:01;100242.28;;;23.47;39.42
31088;BME280;17745;55.914;37.554;2022-08-25T02:46:47;100248.81;;;23.46;39.48
31088;BME280;17745;55.914;37.554;2022-08-25T02:49:16;100242.12;;;23.43;39.52
31088;BME280;17745;55.914;37.554;2022-08-25T02:55:10;100239.44;;;23.52;39.80
31088;BME280;17745;55.914;37.554;2022-08-25T02:57:57;100230.37;;;23.56;39.64
31088;BME280;17745;55.914;37.554;2022-08-25T03:00:56;100232.47;;;23.60;39.51
31088;BME280;17745;55.914;37.554;2022-08-25T03:03:47;100231.53;;;23.64;39.53
31088;BME280;17745;55.914;37.554;2022-08-25T03:06:31;100233.87;;;23.66;39.52
31088;BME280;17745;55.914;37.554;2022-08-25T03:09:04;100238.69;;;23.69;39.55
31088;BME280;17745;55.914;37.554;2022-08-25T03:11:55;100234.53;;;23.72;39.59
31088;BME280;17745;55.914;37.554;2022-08-25T03:14:25;100231.38;;;23.87;39.52
31088;BME280;17745;55.914;37.554;2022-08-25T03:17:24;100232.97;;;23.97;39.47
31088;BME280;17745;55.914;37.554;2022-08-25T03:19:59;100235.25;;;24.12;39.34
31088;BME280;17745;55.914;37.554;2022-08-25T03:22:28;100227.91;;;24.22;39.23
31088;BME280;17745;55.914;37.554;2022-08-25T03:25:00;100242.84;;;24.28;39.24
31088;BME280;17745;55.914;37.554;2022-08-25T03:27:44;100231.56;;;24.35;39.22
31088;BME280;17745;55.914;37.554;2022-08-25T03:30:20;100234.25;;;24.44;39.19
31088;BME280;17745;55.914;37.554;2022-08-25T03:38:02;100233.44;;;24.61;39.14
31088;BME280;17745;55.914;37.554;2022-08-25T04:43:36;100203.63;;;25.38;39.38
31088;BME280;17745;55.914;37.554;2022-08-25T04:52:13;100204.19;;;25.83;38.86
31088;BME280;17745;55.914;37.554;2022-08-25T04:54:47;100203.06;;;25.84;39.00
31088;BME280;17745;55.914;37.554;2022-08-25T04:57:29;100196.94;;;26.08;38.74
31088;BME280;17745;55.914;37.554;2022-08-25T05:00:12;100195.81;;;26.09;38.85
31088;BME280;17745;55.914;37.554;2022-08-25T05:02:44;100195.44;;;26.20;39.02
31088;BME280;17745;55.914;37.554;2022-08-25T05:05:18;100200.78;;;26.29;38.90
31088;BME280;17745;55.914;37.554;2022-08-25T05:07:48;100194.13;;;26.38;38.80
31088;BME280;17745;55.914;37.554;2022-08-25T05:10:47;100195.63;;;26.48;38.74
31088;BME280;17745;55.914;37.554;2022-08-25T05:13:25;100198.16;;;26.66;38.56
31088;BME280;17745;55.914;37.554;2022-08-25T05:16:27;100191.94;;;26.78;38.42
31088;BME280;17745;55.914;37.554;2022-08-25T05:19:15;100198.78;;;26.96;38.26
31088;BME280;17745;55.914;37.554;2022-08-25T05:22:08;100195.25;;;27.08;38.16
31088;BME280;17745;55.914;37.554;2022-08-25T05:24:41;100195.22;;;27.21;38.06
31088;BME280;17745;55.914;37.554;2022-08-25T05:27:20;100194.78;;;27.31;37.95
31088;BME280;17745;55.914;37.554;2022-08-25T05:30:10;100193.53;;;27.41;37.90
31088;BME280;17745;55.914;37.554;2022-08-25T05:32:56;100191.34;;;27.59;37.78
31088;BME280;17745;55.914;37.554;2022-08-25T05:35:26;100190.75;;;27.78;37.49
31088;BME280;17745;55.914;37.554;2022-08-25T05:37:58;100183.56;;;27.86;37.41
31088;BME280;17745;55.914;37.554;2022-08-25T05:40:33;100187.81;;;28.00;37.20
31088;BME280;17745;55.914;37.554;2022-08-25T05:43:12;100187.53;;;28.17;36.92
31088;BME280;17745;55.914;37.554;2022-08-25T05:45:49;100181.78;;;28.35;36.48
31088;BME280;17745;55.914;37.554;2022-08-25T05:49:15;100193.03;;;28.49;36.25
31088;BME280;17745;55.914;37.554;2022-08-25T05:52:01;100186.59;;;28.74;35.13
31088;BME280;17745;55.914;37.554;2022-08-25T05:54:48;100183.50;;;28.88;34.73
31088;BME280;17745;55.914;37.554;2022-08-25T05:57:30;100184.94;;;29.01;34.56
31088;BME280;17745;55.914;37.554;2022-08-25T05:59:59;100174.81;;;29.18;34.03
31088;BME280;17745;55.914;37.554;2022-08-25T06:02:29;100184.47;;;29.31;33.66
31088;BME280;17745;55.914;37.554;2022-08-25T06:05:15;100173.00;;;29.42;33.16
31088;BME280;17745;55.914;37.554;2022-08-25T06:07:44;100177.97;;;29.56;32.75
31088;BME280;17745;55.914;37.554;2022-08-25T06:10:16;100173.97;;;29.69;32.69
31088;BME280;17745;55.914;37.554;2022-08-25T06:12:45;100174.97;;;29.80;32.33
31088;BME280;17745;55.914;37.554;2022-08-25T06:15:18;100175.19;;;29.91;32.05
31088;BME280;17745;55.914;37.554;2022-08-25T06:18:05;100175.47;;;30.06;31.43
31088;BME280;17745;55.914;37.554;2022-08-25T06:21:07;100179.19;;;30.17;31.50
31088;BME280;17745;55.914;37.554;2022-08-25T06:23:44;100184.53;;;30.33;30.91
31088;BME280;17745;55.914;37.554;2022-08-25T06:26:15;100171.44;;;30.43;30.77
31088;BME280;17745;55.914;37.554;2022-08-25T06:28:43;100178.09;;;30.45;30.78
31088;BME280;17745;55.914;37.554;2022-08-25T06:31:11;100171.19;;;30.51;30.62
31088;BME280;17745;55.914;37.554;2022-08-25T06:33:40;100178.78;;;30.62;30.44
31088;BME280;17745;55.914;37.554;2022-08-25T06:36:20;100173.56;;;30.76;30.27
31088;BME280;17745;55.914;37.554;2022-08-25T06:38:53;100173.66;;;30.84;29.81
31088;BME280;17745;55.914;37.554;2022-08-25T06:41:25;100172.91;;;30.87;29.79
31088;BME280;17745;55.914;37.554;2022-08-25T06:43:57;100173.06;;;30.94;29.63
31088;BME280;17745;55.914;37.554;2022-08-25T06:46:27;100168.44;;;31.02;29.37
31088;BME280;17745;55.914;37.554;2022-08-25T06:49:00;100170.91;;;31.10;29.22
31088;BME280;17745;55.914;37.554;2022-08-25T07:23:12;100154.56;;;31.75;27.17
31088;BME280;17745;55.914;37.554;2022-08-25T07:26:11;100150.88;;;31.94;26.73
31088;BME280;17745;55.914;37.554;2022-08-25T07:28:40;100149.44;;;32.08;26.66
31088;BME280;17745;55.914;37.554;2022-08-25T07:31:36;100155.00;;;32.15;26.67
31088;BME280;17745;55.914;37.554;2022-08-25T07:34:47;100151.22;;;32.31;26.54
31088;BME280;17745;55.914;37.554;2022-08-25T07:44:27;100145.59;;;32.58;26.02
31088;BME280;17745;55.914;37.554;2022-08-25T07:46:55;100140.91;;;32.62;25.55
31088;BME280;17745;55.914;37.554;2022-08-25T07:49:41;100143.66;;;32.62;25.74
31088;BME280;17745;55.914;37.554;2022-08-25T07:52:15;100140.97;;;32.69;25.61
31088;BME280;17745;55.914;37.554;2022-08-25T07:54:45;100139.44;;;32.75;25.40
31088;BME280;17745;55.914;37.554;2022-08-25T07:57:14;100132.37;;;32.74;25.28
31088;BME280;17745;55.914;37.554;2022-08-25T07:59:44;100133.13;;;32.71;25.31
31088;BME280;17745;55.914;37.554;2022-08-25T08:02:13;100137.09;;;32.74;25.09
31088;BME280;17745;55.914;37.554;2022-08-25T08:04:47;100134.38;;;32.81;25.06
31088;BME280;17745;55.914;37.554;2022-08-25T08:07:24;100124.69;;;32.91;24.64
31088;BME280;17745;55.914;37.554;2022-08-25T08:09:54;100119.25;;;32.98;24.29
31088;BME280;17745;55.914;37.554;2022-08-25T08:12:22;100114.19;;;33.07;24.27
31088;BME280;17745;55.914;37.554;2022-08-25T08:14:55;100114.22;;;33.15;24.11
31088;BME280;17745;55.914;37.554;2022-08-25T08:17:26;100115.03;;;33.19;23.90
31088;BME280;17745;55.914;37.554;2022-08-25T08:19:55;100115.81;;;33.23;23.95
31088;BME280;17745;55.914;37.554;2022-08-25T08:22:24;100106.81;;;33.26;23.94
31088;BME280;17745;55.914;37.554;2022-08-25T08:25:02;100111.13;;;33.27;23.80
31088;BME280;17745;55.914;37.554;2022-08-25T08:27:44;100106.84;;;33.33;23.34
31088;BME280;17745;55.914;37.554;2022-08-25T08:30:24;100106.84;;;33.33;23.27
31088;BME280;17745;55.914;37.554;2022-08-25T08:33:06;100104.91;;;33.41;22.67
31088;BME280;17745;55.914;37.554;2022-08-25T08:35:55;100104.09;;;33.30;22.99
31088;BME280;17745;55.914;37.554;2022-08-25T08:38:27;100104.50;;;33.32;22.84
31088;BME280;17745;55.914;37.554;2022-08-25T08:41:13;100103.75;;;33.39;22.85
31088;BME280;17745;55.914;37.554;2022-08-25T08:44:09;100098.31;;;33.57;22.55
31088;BME280;17745;55.914;37.554;2022-08-25T08:53:00;100091.69;;;33.72;22.12
31088;BME280;17745;55.914;37.554;2022-08-25T08:59:03;100087.78;;;33.88;21.70
31088;BME280;17745;55.914;37.554;2022-08-25T09:01:34;100088.59;;;33.92;21.72
31088;BME280;17745;55.914;37.554;2022-08-25T09:04:16;100085.81;;;33.96;21.39
31088;BME280;17745;55.914;37.554;2022-08-25T09:06:46;100080.38;;;34.03;21.09
31088;BME280;17745;55.914;37.554;2022-08-25T09:09:36;100081.94;;;34.07;20.98
31088;BME280;17745;55.914;37.554;2022-08-25T09:12:25;100080.34;;;34.17;20.76
31088;BME280;17745;55.914;37.554;2022-08-25T09:15:12;100078.00;;;34.23;20.47
31088;BME280;17745;55.914;37.554;2022-08-25T09:18:03;100079.19;;;34.11;20.35
31088;BME280;17745;55.914;37.554;2022-08-25T09:21:07;100079.97;;;34.19;20.18
31088;BME280;17745;55.914;37.554;2022-08-25T09:23:57;100072.13;;;34.25;19.93
31088;BME280;17745;55.914;37.554;2022-08-25T09:26:40;100072.50;;;34.12;19.77
31088;BME280;17745;55.914;37.554;2022-08-25T09:29:20;100076.84;;;33.99;19.71
31088;BME280;17745;55.914;37.554;2022-08-25T09:31:55;100077.56;;;33.96;19.85
31088;BME280;17745;55.914;37.554;2022-08-25T09:34:32;100062.72;;;34.04;19.80
31088;BME280;17745;55.914;37.554;2022-08-25T09:41:02;100067.00;;;33.98;19.72
31088;BME280;17745;55.914;37.554;2022-08-25T09:47:25;100059.53;;;33.84;20.04
31088;BME280;17745;55.914;37.554;2022-08-25T09:51:47;100061.50;;;33.94;19.85
31088;BME280;17745;55.914;37.554;2022-08-25T10:01:10;100045.44;;;34.07;19.74
31088;BME280;17745;55.914;37.554;2022-08-25T10:07:47;100037.13;;;34.61;19.34
31088;BME280;17745;55.914;37.554;2022-08-25T10:10:26;100037.06;;;34.87;19.21
31088;BME280;17745;55.914;37.554;2022-08-25T10:12:57;100035.78;;;35.10;19.13
31088;BME280;17745;55.914;37.554;2022-08-25T10:15:41;100033.37;;;35.19;18.62
31088;BME280;17745;55.914;37.554;2022-08-25T10:18:21;100041.63;;;35.19;18.34
31088;BME280;17745;55.914;37.554;2022-08-25T10:21:07;100025.94;;;35.16;18.14
31088;BME280;17745;55.914;37.554;2022-08-25T10:27:38;100016.78;;;35.37;18.07
31088;BME280;17745;55.914;37.554;2022-08-25T10:30:37;100027.37;;;35.39;18.27
31088;BME280;17745;55.914;37.554;2022-08-25T10:37:01;100014.06;;;35.86;18.08
31088;BME280;17745;55.914;37.554;2022-08-25T10:39:40;100018.41;;;35.87;18.01
31088;BME280;17745;55.914;37.554;2022-08-25T10:45:25;100015.41;;;35.67;18.03
31088;BME280;17745;55.914;37.554;2022-08-25T10:48:45;100007.97;;;35.60;17.99
31088;BME280;17745;55.914;37.554;2022-08-25T10:51:40;99993.94;;;35.40;17.96
31088;BME280;17745;55.914;37.554;2022-08-25T10:54:31;99997.47;;;35.41;18.06
31088;BME280;17745;55.914;37.554;2022-08-25T10:57:14;99987.56;;;35.54;18.12
31088;BME280;17745;55.914;37.554;2022-08-25T10:59:50;99980.78;;;35.66;17.95
31088;BME280;17745;55.914;37.554;2022-08-25T11:05:34;99977.25;;;35.66;17.82
31088;BME280;17745;55.914;37.554;2022-08-25T11:08:09;99978.53;;;35.54;17.71
31088;BME280;17745;55.914;37.554;2022-08-25T11:10:46;99992.75;;;35.41;17.76
31088;BME280;17745;55.914;37.554;2022-08-25T11:13:36;99984.88;;;35.40;17.76
31088;BME280;17745;55.914;37.554;2022-08-25T11:16:13;99970.50;;;35.74;17.73
31088;BME280;17745;55.914;37.554;2022-08-25T11:18:49;99969.97;;;36.67;16.97
31088;BME280;17745;55.914;37.554;2022-08-25T11:21:23;99974.66;;;38.24;15.84
31088;BME280;17745;55.914;37.554;2022-08-25T11:24:02;99965.38;;;39.61;14.75
31088;BME280;17745;55.914;37.554;2022-08-25T11:26:40;99958.19;;;40.52;13.98
31088;BME280;17745;55.914;37.554;2022-08-25T11:29:15;99960.16;;;40.94;13.63
31088;BME280;17745;55.914;37.554;2022-08-25T11:31:46;99954.47;;;41.24;13.30
31088;BME280;17745;55.914;37.554;2022-08-25T11:34:19;99956.13;;;41.34;13.17
31088;BME280;17745;55.914;37.554;2022-08-25T11:36:52;99953.53;;;41.88;12.87
31088;BME280;17745;55.914;37.554;2022-08-25T11:39:38;99940.69;;;42.57;12.18
31088;BME280;17745;55.914;37.554;2022-08-25T11:42:41;99946.34;;;43.26;11.62
31088;BME280;17745;55.914;37.554;2022-08-25T11:45:44;99940.97;;;43.60;11.32
31088;BME280;17745;55.914;37.554;2022-08-25T11:48:28;99943.94;;;43.38;11.53
31088;BME280;17745;55.914;37.554;2022-08-25T11:51:30;99934.91;;;43.24;11.31
31088;BME280;17745;55.914;37.554;2022-08-25T11:54:17;99938.19;;;43.51;11.28
31088;BME280;17745;55.914;37.554;2022-08-25T11:57:24;99931.53;;;43.76;11.24
31088;BME280;17745;55.914;37.554;2022-08-25T12:00:13;99930.88;;;43.25;11.52
31088;BME280;17745;55.914;37.554;2022-08-25T12:06:25;99918.84;;;43.84;11.29
31088;BME280;17745;55.914;37.554;2022-08-25T12:09:16;99921.16;;;43.95;11.25
31088;BME280;17745;55.914;37.554;2022-08-25T12:11:56;99923.44;;;44.16;11.25
31088;BME280;17745;55.914;37.554;2022-08-25T12:14:42;99922.19;;;44.26;11.16
31088;BME280;17745;55.914;37.554;2022-08-25T12:17:21;99918.09;;;44.46;10.93
31088;BME280;17745;55.914;37.554;2022-08-25T12:19:53;99905.97;;;44.58;10.83
31088;BME280;17745;55.914;37.554;2022-08-25T12:22:41;99908.25;;;44.26;11.11
31088;BME280;17745;55.914;37.554;2022-08-25T12:25:34;99910.66;;;44.42;11.06
31088;BME280;17745;55.914;37.554;2022-08-25T12:28:39;99901.94;;;44.50;10.87
31088;BME280;17745;55.914;37.554;2022-08-25T12:31:19;99906.72;;;44.06;11.05
31088;BME280;17745;55.914;37.554;2022-08-25T12:34:05;99902.41;;;43.68;11.33
31088;BME280;17745;55.914;37.554;2022-08-25T12:36:38;99902.28;;;43.72;11.35
31088;BME280;17745;55.914;37.554;2022-08-25T12:39:17;99898.88;;;43.30;11.59
31088;BME280;17745;55.914;37.554;2022-08-25T12:41:58;99892.34;;;42.74;11.98
31088;BME280;17745;55.914;37.554;2022-08-25T12:44:36;99891.12;;;42.11;12.43
31088;BME280;17745;55.914;37.554;2022-08-25T12:47:30;99890.88;;;41.96;12.54
31088;BME280;17745;55.914;37.554;2022-08-25T12:50:35;99891.66;;;42.51;12.22
31088;BME280;17745;55.914;37.554;2022-08-25T12:53:10;99886.50;;;43.31;11.77
31088;BME280;17745;55.914;37.554;2022-08-25T12:55:42;99883.41;;;43.48;11.52
31088;BME280;17745;55.914;37.554;2022-08-25T13:01:41;99881.84;;;44.36;10.94
31088;BME280;17745;55.914;37.554;2022-08-25T13:05:01;99878.22;;;43.93;11.13
31088;BME280;17745;55.914;37.554;2022-08-25T13:07:55;99875.12;;;43.91;11.29
31088;BME280;17745;55.914;37.554;2022-08-25T13:10:45;99862.25;;;44.12;11.23
31088;BME280;17745;55.914;37.554;2022-08-25T13:13:36;99873.78;;;43.77;11.48
31088;BME280;17745;55.914;37.554;2022-08-25T13:16:17;99872.31;;;44.19;11.34
31088;BME280;17745;55.914;37.554;2022-08-25T13:18:49;99861.63;;;44.60;11.06
31088;BME280;17745;55.914;37.554;2022-08-25T13:21:18;99866.81;;;45.01;10.86
31088;BME280;17745;55.914;37.554;2022-08-25T13:23:58;99863.78;;;45.29;10.74
31088;BME280;17745;55.914;37.554;2022-08-25T13:26:29;99861.59;;;45.73;10.47
31088;BME280;17745;55.914;37.554;2022-08-25T13:29:48;99863.44;;;45.36;10.56
31088;BME280;17745;55.914;37.554;2022-08-25T13:32:25;99858.22;;;44.47;10.93
31088;BME280;17745;55.914;37.554;2022-08-25T13:35:07;99858.75;;;43.74;11.37
31088;BME280;17745;55.914;37.554;2022-08-25T13:37:37;99852.88;;;43.63;11.45
31088;BME280;17745;55.914;37.554;2022-08-25T13:40:09;99844.19;;;43.23;11.73
31088;BME280;17745;55.914;37.554;2022-08-25T13:42:58;99845.16;;;43.30;11.58
31088;BME280;17745;55.914;37.554;2022-08-25T13:45:38;99839.69;;;43.63;11.50
31088;BME280;17745;55.914;37.554;2022-08-25T13:48:12;99834.00;;;44.19;11.27
31088;BME280;17745;55.914;37.554;2022-08-25T13:51:07;99843.28;;;44.59;11.08
31088;BME280;17745;55.914;37.554;2022-08-25T13:53:35;99840.84;;;44.52;11.01
31088;BME280;17745;55.914;37.554;2022-08-25T13:56:04;99837.25;;;44.27;11.16
31088;BME280;17745;55.914;37.554;2022-08-25T13:58:36;99836.06;;;44.43;11.08
31088;BME280;17745;55.914;37.554;2022-08-25T14:01:07;99838.09;;;44.42;11.02
31088;BME280;17745;55.914;37.554;2022-08-25T14:03:38;99829.72;;;44.42;11.09
31088;BME280;17745;55.914;37.554;2022-08-25T14:06:17;99826.50;;;44.35;11.15
31088;BME280;17745;55.914;37.554;2022-08-25T14:08:47;99828.88;;;44.27;11.20
31088;BME280;17745;55.914;37.554;2022-08-25T14:11:28;99830.47;;;44.19;11.31
31088;BME280;17745;55.914;37.554;2022-08-25T14:13:59;99834.09;;;44.34;11.19
31088;BME280;17745;55.914;37.554;2022-08-25T14:16:28;99823.59;;;44.63;11.01
31088;BME280;17745;55.914;37.554;2022-08-25T14:18:58;99818.37;;;44.12;11.23
31088;BME280;17745;55.914;37.554;2022-08-25T14:21:31;99820.19;;;42.98;11.89
31088;BME280;17745;55.914;37.554;2022-08-25T14:23:59;99813.19;;;42.84;12.08
31088;BME280;17745;55.914;37.554;2022-08-25T14:26:27;99819.38;;;42.79;12.11
31088;BME280;17745;55.914;37.554;2022-08-25T14:28:55;99815.25;;;42.93;12.04
31088;BME280;17745;55.914;37.554;2022-08-25T14:31:26;99817.59;;;43.32;11.88
31088;BME280;17745;55.914;37.554;2022-08-25T14:33:58;99814.75;;;43.69;11.64
31088;BME280;17745;55.914;37.554;2022-08-25T14:36:29;99807.09;;;43.97;11.54
31088;BME280;17745;55.914;37.554;2022-08-25T14:38:58;99808.31;;;44.06;11.48
31088;BME280;17745;55.914;37.554;2022-08-25T14:41:32;99801.75;;;43.66;11.60
31088;BME280;17745;55.914;37.554;2022-08-25T14:44:04;99798.06;;;43.13;11.93
31088;BME280;17745;55.914;37.554;2022-08-25T14:46:42;99804.41;;;42.95;12.14
31088;BME280;17745;55.914;37.554;2022-08-25T14:49:16;99802.72;;;42.97;12.27
31088;BME280;17745;55.914;37.554;2022-08-25T14:51:48;99797.75;;;42.92;12.23
31088;BME280;17745;55.914;37.554;2022-08-25T14:54:16;99787.81;;;42.72;12.34
31088;BME280;17745;55.914;37.554;2022-08-25T14:56:47;99786.88;;;42.57;12.42
31088;BME280;17745;55.914;37.554;2022-08-25T14:59:16;99789.97;;;42.59;12.56
31088;BME280;17745;55.914;37.554;2022-08-25T15:01:45;99789.22;;;42.68;12.55
31088;BME280;17745;55.914;37.554;2022-08-25T15:04:15;99780.50;;;42.56;12.62
31088;BME280;17745;55.914;37.554;2022-08-25T15:06:46;99785.69;;;42.36;12.76
31088;BME280;17745;55.914;37.554;2022-08-25T15:09:18;99789.25;;;42.36;12.70
31088;BME280;17745;55.914;37.554;2022-08-25T15:11:48;99783.06;;;42.32;12.72
31088;BME280;17745;55.914;37.554;2022-08-25T15:14:17;99786.91;;;42.25;12.82
31088;BME280;17745;55.914;37.554;2022-08-25T15:16:49;99783.03;;;42.23;12.79
31088;BME280;17745;55.914;37.554;2022-08-25T15:19:18;99794.09;;;42.13;12.75
31088;BME280;17745;55.914;37.554;2022-08-25T15:21:50;99787.25;;;41.51;13.02
31088;BME280;17745;55.914;37.554;2022-08-25T15:24:31;99785.69;;;40.93;13.26
31088;BME280;17745;55.914;37.554;2022-08-25T15:27:03;99788.41;;;40.44;13.60
31088;BME280;17745;55.914;37.554;2022-08-25T15:29:33;99786.94;;;39.88;13.98
31088;BME280;17745;55.914;37.554;2022-08-25T15:32:15;99782.41;;;39.65;14.22
31088;BME280;17745;55.914;37.554;2022-08-25T15:34:43;99781.44;;;39.71;14.26
31088;BME280;17745;55.914;37.554;2022-08-25T15:37:15;99772.31;;;39.58;14.37
31088;BME280;17745;55.914;37.554;2022-08-25T15:39:52;99781.97;;;39.37;14.57
31088;BME280;17745;55.914;37.554;2022-08-25T15:42:26;99775.31;;;38.71;14.93
31088;BME280;17745;55.914;37.554;2022-08-25T15:45:01;99785.88;;;38.23;15.29
31088;BME280;17745;55.914;37.554;2022-08-25T15:48:12;99786.91;;;37.72;15.68
31088;BME280;17745;55.914;37.554;2022-08-25T15:50:56;99785.66;;;37.57;15.95
31088;BME280;17745;55.914;37.554;2022-08-25T15:53:43;99781.28;;;37.36;16.06
31088;BME280;17745;55.914;37.554;2022-08-25T15:56:21;99778.56;;;37.12;16.38
31088;BME280;17745;55.914;37.554;2022-08-25T15:58:50;99782.59;;;36.80;16.55
31088;BME280;17745;55.914;37.554;2022-08-25T16:01:33;99792.44;;;36.26;17.00
31088;BME280;17745;55.914;37.554;2022-08-25T16:04:02;99782.16;;;35.64;17.62
31088;BME280;17745;55.914;37.554;2022-08-25T16:06:31;99782.56;;;35.20;18.04
31088;BME280;17745;55.914;37.554;2022-08-25T16:12:30;99784.66;;;34.53;18.88
31088;BME280;17745;55.914;37.554;2022-08-25T16:15:17;99787.56;;;34.20;19.33
31088;BME280;17745;55.914;37.554;2022-08-25T16:21:32;99794.03;;;33.62;20.06
31088;BME280;17745;55.914;37.554;2022-08-25T16:25:04;99787.37;;;33.34;20.26
31088;BME280;17745;55.914;37.554;2022-08-25T16:35:36;99786.53;;;32.50;21.35
31088;BME280;17745;55.914;37.554;2022-08-25T16:38:54;99791.94;;;32.25;21.50
31088;BME280;17745;55.914;37.554;2022-08-25T16:41:31;99793.41;;;32.01;21.68
31088;BME280;17745;55.914;37.554;2022-08-25T16:44:13;99797.63;;;31.87;22.15
31088;BME280;17745;55.914;37.554;2022-08-25T16:46:44;99790.47;;;31.72;22.16
31088;BME280;17745;55.914;37.554;2022-08-25T16:49:13;99802.94;;;31.58;22.34
31088;BME280;17745;55.914;37.554;2022-08-25T16:52:29;99802.47;;;31.45;22.54
31088;BME280;17745;55.914;37.554;2022-08-25T16:55:32;99800.81;;;31.37;22.90
31088;BME280;17745;55.914;37.554;2022-08-25T16:58:08;99797.56;;;31.20;22.98
31088;BME280;17745;55.914;37.554;2022-08-25T17:00:42;99802.53;;;31.07;23.22
31088;BME280;17745;55.914;37.554;2022-08-25T17:03:21;99804.81;;;30.98;23.41
31088;BME280;17745;55.914;37.554;2022-08-25T17:06:27;99810.53;;;30.86;23.94
31088;BME280;17745;55.914;37.554;2022-08-25T17:12:45;99806.94;;;30.40;25.40
31088;BME280;17745;55.914;37.554;2022-08-25T17:15:43;99807.44;;;30.19;25.99
31088;BME280;17745;55.914;37.554;2022-08-25T17:18:25;99808.84;;;30.05;26.27
31088;BME280;17745;55.914;37.554;2022-08-25T17:21:07;99816.06;;;29.90;26.33
31088;BME280;17745;55.914;37.554;2022-08-25T17:24:00;99822.53;;;29.82;26.73
31088;BME280;17745;55.914;37.554;2022-08-25T17:26:42;99820.81;;;29.70;26.91
31088;BME280;17745;55.914;37.554;2022-08-25T17:32:39;99818.50;;;29.45;28.04
31088;BME280;17745;55.914;37.554;2022-08-25T17:35:14;99818.63;;;29.29;28.37
31088;BME280;17745;55.914;37.554;2022-08-25T17:40:58;99813.94;;;29.06;28.66
31088;BME280;17745;55.914;37.554;2022-08-25T17:43:55;99809.13;;;28.96;28.53
31088;BME280;17745;55.914;37.554;2022-08-25T17:46:40;99813.66;;;28.88;28.53
31088;BME280;17745;55.914;37.554;2022-08-25T17:49:16;99809.28;;;28.84;28.99
31088;BME280;17745;55.914;37.554;2022-08-25T17:51:45;99812.28;;;28.78;28.98
31088;BME280;17745;55.914;37.554;2022-08-25T17:54:13;99814.16;;;28.74;29.02
31088;BME280;17745;55.914;37.554;2022-08-25T17:56:41;99814.16;;;28.74;29.13
31088;BME280;17745;55.914;37.554;2022-08-25T17:59:27;99810.22;;;28.72;29.25
31088;BME280;17745;55.914;37.554;2022-08-25T18:02:13;99812.50;;;28.70;29.24
31088;BME280;17745;55.914;37.554;2022-08-25T18:04:46;99819.03;;;28.65;29.38
31088;BME280;17745;55.914;37.554;2022-08-25T18:07:14;99817.75;;;28.59;29.72
31088;BME280;17745;55.914;37.554;2022-08-25T18:09:43;99820.41;;;28.55;29.84
31088;BME280;17745;55.914;37.554;2022-08-25T18:12:12;99814.09;;;28.51;29.97
31088;BME280;17745;55.914;37.554;2022-08-25T18:14:48;99817.13;;;28.46;30.07
31088;BME280;17745;55.914;37.554;2022-08-25T18:17:42;99809.31;;;28.44;30.20
31088;BME280;17745;55.914;37.554;2022-08-25T18:20:45;99806.88;;;28.39;30.11
31088;BME280;17745;55.914;37.554;2022-08-25T18:23:16;99819.72;;;28.38;30.32
31088;BME280;17745;55.914;37.554;2022-08-25T18:26:02;99814.53;;;28.33;30.31
31088;BME280;17745;55.914;37.554;2022-08-25T18:29:00;99816.81;;;28.31;30.48
31088;BME280;17745;55.914;37.554;2022-08-25T18:31:31;99815.97;;;28.27;30.48
31088;BME280;17745;55.914;37.554;2022-08-25T18:34:01;99818.28;;;28.25;30.59